^^
Station Historical Data
Daily Summary for March 29, 2017 Units:  English    Metric   Both
« Previous Day
Next Day »
Daily Weekly Monthly Yearly Custom
  High: Low: Average:
Temperature: 58.4 °F 41.0 °F 48.9 °F
Dew Point: 47.6 °F 27.3 °F 35.4 °F
Humidity: 96 % 39 % 62 %
Wind Speed: 14.6 mph 0.0 mph 5.6 mph
Wind Gust: 19.6 mph - -
Wind:- - WSW
Pressure: 30.26 in 29.98 in -
Precipitation: 0.00 in    
Historical Graphs
 
 
Tabular Data for March 29, 2017
Time Temperature Dew Point Pressure Wind Wind Speed Wind Gust Humidity Rainfall Rate (Hourly) solar Conditions
00:03 47.6 °F 46.5 °F 29.98 in Calm     96 % 0.00 in 0.0 W/m2 RA
00:08 47.9 °F 46.8 °F 29.98 in Calm     96 % 0.00 in 0.0 W/m2 RA
00:13 48.0 °F 46.9 °F 29.98 in Calm     96 % 0.00 in 0.0 W/m2 CLR
00:18 48.3 °F 47.2 °F 29.98 in Calm     96 % 0.00 in 0.0 W/m2 CLR
00:23 48.5 °F 47.4 °F 29.98 in NNW 3.0 mph 9.2 mph 96 % 0.00 in 0.0 W/m2 CLR
00:28 48.7 °F 47.6 °F 29.98 in NNE 3.5 mph 8.1 mph 96 % 0.00 in 0.0 W/m2 CLR
00:33 48.7 °F 47.6 °F 29.98 in NNW 5.2 mph 11.5 mph 96 % 0.00 in 0.0 W/m2 CLR
00:38 48.7 °F 47.6 °F 29.98 in North 4.9 mph 10.4 mph 96 % 0.00 in 0.0 W/m2 CLR
00:43 48.6 °F 47.5 °F 29.98 in NW 5.8 mph 8.1 mph 96 % 0.00 in 0.0 W/m2 CLR
00:48 48.5 °F 47.1 °F 29.98 in NNW 5.0 mph 10.4 mph 95 % 0.00 in 0.0 W/m2 CLR
00:53 48.3 °F 46.9 °F 29.98 in NW 0.4 mph 4.6 mph 95 % 0.00 in 0.0 W/m2 CLR
00:58 48.3 °F 46.9 °F 29.98 in NW 1.2 mph 3.5 mph 95 % 0.00 in 0.0 W/m2 CLR
01:03 48.3 °F 46.9 °F 29.98 in Calm     95 % 0.00 in 0.0 W/m2 CLR
01:08 48.4 °F 46.8 °F 29.98 in NW 0.1 mph 1.2 mph 94 % 0.00 in 0.0 W/m2 CLR
01:13 48.4 °F 46.8 °F 29.99 in NNW 1.3 mph 4.0 mph 94 % 0.00 in 0.0 W/m2 CLR
01:18 48.1 °F 46.5 °F 29.99 in NNW 5.8 mph 10.4 mph 94 % 0.00 in 0.0 W/m2 CLR
01:23 48.0 °F 46.1 °F 29.99 in NNW 7.9 mph 12.7 mph 93 % 0.00 in 0.0 W/m2 CLR
01:28 47.9 °F 46.0 °F 29.99 in North 5.4 mph 11.5 mph 93 % 0.00 in 0.0 W/m2 CLR
01:33 47.9 °F 46.0 °F 29.99 in NW 3.8 mph 10.4 mph 93 % 0.00 in 0.0 W/m2 CLR
01:38 47.9 °F 45.7 °F 29.99 in North 6.0 mph 11.5 mph 92 % 0.00 in 0.0 W/m2 CLR
01:43 47.7 °F 45.2 °F 29.99 in NNW 4.4 mph 8.1 mph 91 % 0.00 in 0.0 W/m2 CLR
01:48 47.7 °F 45.2 °F 29.99 in North 1.4 mph 3.5 mph 91 % 0.00 in 0.0 W/m2 CLR
01:53 47.8 °F 45.3 °F 29.99 in North 0.1 mph 3.5 mph 91 % 0.00 in 0.0 W/m2 CLR
01:58 47.9 °F 45.1 °F 29.99 in Calm     90 % 0.00 in 0.0 W/m2 CLR
02:03 47.8 °F 45.0 °F 29.99 in Calm     90 % 0.00 in 0.0 W/m2 CLR
02:08 47.6 °F 44.5 °F 30.00 in Calm     89 % 0.00 in 0.0 W/m2 CLR
02:13 47.5 °F 44.4 °F 30.00 in NNE 0.3 mph 2.3 mph 89 % 0.00 in 0.0 W/m2 CLR
02:18 47.4 °F 44.3 °F 30.00 in Calm     89 % 0.00 in 0.0 W/m2 CLR
02:23 47.1 °F 44.0 °F 30.00 in Calm     89 % 0.00 in 0.0 W/m2 CLR
02:28 46.7 °F 43.6 °F 30.00 in North 0.3 mph 2.3 mph 89 % 0.00 in 0.0 W/m2 CLR
02:33 46.7 °F 43.6 °F 30.01 in NW 1.9 mph 5.8 mph 89 % 0.00 in 0.0 W/m2 CLR
02:38 46.5 °F 43.1 °F 30.01 in NW 8.3 mph 12.7 mph 88 % 0.00 in 0.0 W/m2 CLR
02:43 46.5 °F 43.1 °F 30.01 in NNW 2.7 mph 8.1 mph 88 % 0.00 in 0.0 W/m2 CLR
02:48 46.5 °F 42.8 °F 30.01 in North 5.1 mph 11.0 mph 87 % 0.00 in 0.0 W/m2 CLR
02:53 46.3 °F 42.6 °F 30.01 in NNE 2.9 mph 7.0 mph 87 % 0.00 in 0.0 W/m2 CLR
02:58 46.2 °F 42.2 °F 30.01 in NNW 4.2 mph 11.5 mph 86 % 0.00 in 0.0 W/m2 CLR
03:03 46.2 °F 42.2 °F 30.01 in NW 4.3 mph 12.0 mph 86 % 0.00 in 0.0 W/m2 CLR
03:08 46.2 °F 42.2 °F 30.01 in North 9.4 mph 13.8 mph 86 % 0.00 in 0.0 W/m2 CLR
03:13 46.3 °F 42.3 °F 30.01 in NNW 5.7 mph 10.4 mph 86 % 0.00 in 0.0 W/m2 CLR
03:18 46.3 °F 42.0 °F 30.02 in North 7.6 mph 13.8 mph 85 % 0.00 in 0.0 W/m2 CLR
03:23 46.5 °F 42.2 °F 30.02 in NNW 3.4 mph 8.1 mph 85 % 0.00 in 0.0 W/m2 CLR
03:28 46.5 °F 42.2 °F 30.03 in NNW 8.7 mph 11.5 mph 85 % 0.00 in 0.0 W/m2 CLR
03:33 46.4 °F 42.1 °F 30.03 in NNW 4.8 mph 10.4 mph 85 % 0.00 in 0.0 W/m2 CLR
03:38 46.3 °F 42.0 °F 30.03 in NNW 5.7 mph 12.7 mph 85 % 0.00 in 0.0 W/m2 CLR
03:43 46.2 °F 41.6 °F 30.03 in NW 7.1 mph 11.5 mph 84 % 0.00 in 0.0 W/m2 CLR
03:48 46.2 °F 41.6 °F 30.03 in NNW 3.6 mph 9.2 mph 84 % 0.00 in 0.0 W/m2 CLR
03:53 46.1 °F 41.5 °F 30.04 in NNW 4.1 mph 5.8 mph 84 % 0.00 in 0.0 W/m2 CLR
03:58 46.1 °F 41.5 °F 30.04 in NW 3.5 mph 8.1 mph 84 % 0.00 in 0.0 W/m2 CLR
04:03 45.9 °F 41.3 °F 30.04 in NW 1.2 mph 3.5 mph 84 % 0.00 in 0.0 W/m2 CLR
04:08 45.8 °F 41.2 °F 30.05 in NW 5.7 mph 11.5 mph 84 % 0.00 in 0.0 W/m2 CLR
04:13 45.8 °F 41.2 °F 30.05 in NNW 3.6 mph 8.1 mph 84 % 0.00 in 0.0 W/m2 CLR
04:18 45.7 °F 41.1 °F 30.05 in NNW 3.7 mph 5.8 mph 84 % 0.00 in 0.0 W/m2 CLR
04:23 45.7 °F 41.1 °F 30.05 in NNW 2.7 mph 8.1 mph 84 % 0.00 in 0.0 W/m2 CLR
04:28 45.5 °F 40.6 °F 30.05 in North 0.6 mph 8.1 mph 83 % 0.00 in 0.0 W/m2 CLR
04:33 45.5 °F 40.6 °F 30.05 in NNE 4.1 mph 10.4 mph 83 % 0.00 in 0.0 W/m2 CLR
04:38 45.4 °F 40.5 °F 30.05 in NNW 6.0 mph 9.2 mph 83 % 0.00 in 0.0 W/m2 CLR
04:43 45.2 °F 40.3 °F 30.05 in NNE 6.6 mph 10.4 mph 83 % 0.00 in 0.0 W/m2 CLR
04:48 45.0 °F 40.1 °F 30.06 in NNW 8.1 mph 15.0 mph 83 % 0.00 in 0.0 W/m2 CLR
04:53 44.9 °F 40.0 °F 30.06 in WNW 8.4 mph 12.0 mph 83 % 0.00 in 0.0 W/m2 CLR
04:58 44.5 °F 39.7 °F 30.06 in North 10.1 mph 18.4 mph 83 % 0.00 in 0.0 W/m2 CLR
05:03 44.3 °F 39.5 °F 30.07 in North 3.2 mph 5.8 mph 83 % 0.00 in 0.0 W/m2 CLR
05:08 44.2 °F 39.4 °F 30.07 in North 4.0 mph 11.5 mph 83 % 0.00 in 0.0 W/m2 CLR
05:13 44.1 °F 39.3 °F 30.07 in North 2.3 mph 4.6 mph 83 % 0.00 in 0.0 W/m2 CLR
05:18 44.0 °F 39.2 °F 30.07 in NNW 0.6 mph 10.0 mph 83 % 0.00 in 0.0 W/m2 CLR
05:23 43.8 °F 39.0 °F 30.07 in NW 1.4 mph 9.0 mph 83 % 0.00 in 0.0 W/m2 CLR
05:28 43.7 °F 38.9 °F 30.07 in North 2.9 mph 8.1 mph 83 % 0.00 in 0.0 W/m2 CLR
05:33 43.8 °F 39.0 °F 30.07 in North 2.5 mph 5.0 mph 83 % 0.00 in 0.0 W/m2 CLR
05:38 43.8 °F 39.0 °F 30.07 in NNW 2.7 mph 3.5 mph 83 % 0.00 in 0.0 W/m2 CLR
05:43 43.8 °F 39.0 °F 30.07 in North 8.4 mph 10.0 mph 83 % 0.00 in 0.0 W/m2 CLR
05:48 43.4 °F 38.6 °F 30.07 in NNW 2.7 mph 4.6 mph 83 % 0.00 in 0.0 W/m2 CLR
05:53 43.2 °F 38.1 °F 30.07 in North 4.6 mph 11.5 mph 82 % 0.00 in 0.0 W/m2 CLR
05:58 43.0 °F 37.9 °F 30.07 in NW 2.1 mph 9.2 mph 82 % 0.00 in 0.0 W/m2 CLR
06:03 42.8 °F 37.7 °F 30.07 in NNW 5.2 mph 14.0 mph 82 % 0.00 in 0.0 W/m2 CLR
06:08 42.6 °F 37.2 °F 30.07 in North 4.6 mph 5.8 mph 81 % 0.00 in 0.0 W/m2 CLR
06:13 42.5 °F 37.1 °F 30.07 in NNW 7.3 mph 11.5 mph 81 % 0.00 in 0.0 W/m2 CLR
06:18 42.4 °F 36.7 °F 30.08 in NNW 3.9 mph 11.5 mph 80 % 0.00 in 0.0 W/m2 CLR
06:24 42.2 °F 36.5 °F 30.08 in NNW 2.4 mph 9.2 mph 80 % 0.00 in 0.0 W/m2 CLR
06:29 42.1 °F 36.4 °F 30.08 in Calm     80 % 0.00 in 0.0 W/m2 CLR
06:34 41.9 °F 36.2 °F 30.08 in SW 0.5 mph 3.5 mph 80 % 0.00 in 0.0 W/m2 CLR
06:39 42.1 °F 36.4 °F 30.08 in Calm   2.3 mph 80 % 0.00 in 0.0 W/m2 CLR
06:44 42.0 °F 36.3 °F 30.09 in NNW 3.0 mph 5.8 mph 80 % 0.00 in 0.0 W/m2 CLR
06:49 41.9 °F 35.9 °F 30.09 in NNW 0.4 mph 4.6 mph 79 % 0.00 in 0.0 W/m2 CLR
06:54 41.7 °F 35.7 °F 30.10 in North 0.2 mph 2.3 mph 79 % 0.00 in 5.0 W/m2 CLR
06:59 41.6 °F 35.6 °F 30.10 in North 3.0 mph 5.8 mph 79 % 0.00 in 9.0 W/m2 CLR
07:04 41.6 °F 35.6 °F 30.10 in NNW 3.0 mph 8.1 mph 79 % 0.00 in 18.0 W/m2 CLR
07:09 41.5 °F 35.5 °F 30.10 in NW 1.8 mph 5.8 mph 79 % 0.00 in 21.0 W/m2 CLR
07:10 41.5 °F 35.5 °F 30.10 in Calm   5.8 mph 79 % 0.00 in 25.0 W/m2 CLR
07:15 41.5 °F 35.5 °F 30.11 in Calm     79 % 0.00 in 28.0 W/m2 CLR
07:20 41.6 °F 35.6 °F 30.10 in North 3.1 mph 4.6 mph 79 % 0.00 in 28.0 W/m2 CLR
07:25 41.6 °F 35.2 °F 30.11 in NNW 0.5 mph 8.1 mph 78 % 0.00 in 26.0 W/m2 CLR
07:26 41.6 °F 35.2 °F 30.10 in Calm     78 % 0.00 in 25.0 W/m2 CLR
07:31 41.5 °F 35.2 °F 30.11 in NNW 0.5 mph 2.3 mph 78 % 0.00 in 28.0 W/m2 CLR
07:36 41.4 °F 35.4 °F 30.11 in Calm     79 % 0.00 in 35.0 W/m2 SCT
07:41 41.4 °F 35.1 °F 30.12 in NNE 0.5 mph 2.3 mph 78 % 0.00 in 44.0 W/m2 SCT
07:46 41.4 °F 35.4 °F 30.12 in NNE 0.3 mph 2.3 mph 79 % 0.00 in 67.0 W/m2 FEW
07:51 41.6 °F 35.6 °F 30.12 in NE 1.2 mph 3.5 mph 79 % 0.00 in 63.0 W/m2 FEW
07:56 41.8 °F 35.8 °F 30.12 in Calm     79 % 0.00 in 70.0 W/m2 SCT
08:01 42.0 °F 35.6 °F 30.12 in NNW 0.2 mph 2.3 mph 78 % 0.00 in 91.0 W/m2 SCT
08:06 41.9 °F 35.5 °F 30.12 in North 2.3 mph 4.6 mph 78 % 0.00 in 67.0 W/m2 BKN
08:11 41.8 °F 35.1 °F 30.13 in Calm     77 % 0.00 in 74.0 W/m2 SCT
08:16 42.0 °F 35.3 °F 30.13 in NW 2.6 mph 5.8 mph 77 % 0.00 in 62.0 W/m2 BKN
08:21 42.3 °F 35.3 °F 30.13 in NNE 2.8 mph 6.9 mph 76 % 0.00 in 77.0 W/m2 BKN
08:26 42.5 °F 35.1 °F 30.13 in NW 7.9 mph 11.5 mph 75 % 0.00 in 178.0 W/m2 CLR
08:31 42.9 °F 35.5 °F 30.13 in NNW 7.1 mph 12.7 mph 75 % 0.00 in 118.0 W/m2 SCT
08:36 43.2 °F 35.5 °F 30.13 in North 5.9 mph 11.5 mph 74 % 0.00 in 253.0 W/m2 CLR
08:41 43.6 °F 35.9 °F 30.13 in NNE 7.7 mph 12.7 mph 74 % 0.00 in 232.0 W/m2 CLR
08:46 43.9 °F 36.1 °F 30.13 in North 5.1 mph 12.0 mph 74 % 0.00 in 264.0 W/m2 CLR
08:51 44.3 °F 36.2 °F 30.13 in NW 4.7 mph 8.1 mph 73 % 0.00 in 373.0 W/m2 CLR
08:56 44.5 °F 36.0 °F 30.13 in North 6.4 mph 11.5 mph 72 % 0.00 in 396.0 W/m2 CLR
08:57 44.5 °F 36.0 °F 30.13 in NNW 4.3 mph 8.1 mph 72 % 0.00 in 399.0 W/m2 CLR
09:02 44.6 °F 36.1 °F 30.12 in North 5.4 mph 12.0 mph 72 % 0.00 in 418.0 W/m2 CLR
09:07 44.9 °F 36.4 °F 30.13 in NNW 10.0 mph 12.7 mph 72 % 0.00 in 436.0 W/m2 CLR
09:12 45.2 °F 36.4 °F 30.13 in NE 4.5 mph 11.5 mph 71 % 0.00 in 454.0 W/m2 CLR
09:17 45.5 °F 36.3 °F 30.13 in North 8.2 mph 16.1 mph 70 % 0.00 in 471.0 W/m2 CLR
09:22 45.5 °F 35.9 °F 30.13 in NNW 9.4 mph 13.8 mph 69 % 0.00 in 485.0 W/m2 CLR
09:27 45.5 °F 35.5 °F 30.13 in NNW 7.1 mph 10.4 mph 68 % 0.00 in 503.0 W/m2 CLR
09:32 46.3 °F 36.7 °F 30.14 in NNW 7.0 mph 10.4 mph 69 % 0.00 in 519.0 W/m2 CLR
09:37 46.8 °F 36.8 °F 30.14 in NW 4.3 mph 8.1 mph 68 % 0.00 in 536.0 W/m2 CLR
09:42 47.3 °F 36.9 °F 30.14 in NNW 4.5 mph 11.0 mph 67 % 0.00 in 550.0 W/m2 CLR
09:47 47.5 °F 36.7 °F 30.14 in NW 4.5 mph 8.1 mph 66 % 0.00 in 566.0 W/m2 CLR
09:52 47.7 °F 36.9 °F 30.14 in NW 8.0 mph 15.0 mph 66 % 0.00 in 585.0 W/m2 CLR
09:57 47.7 °F 36.5 °F 30.14 in NNW 3.2 mph 4.6 mph 65 % 0.00 in 601.0 W/m2 CLR
10:02 47.8 °F 36.2 °F 30.14 in West 10.0 mph 16.1 mph 64 % 0.00 in 613.0 W/m2 CLR
10:07 47.9 °F 35.5 °F 30.15 in NW 6.0 mph 11.5 mph 62 % 0.00 in 628.0 W/m2 CLR
10:12 48.3 °F 35.5 °F 30.15 in NNW 12.3 mph 18.4 mph 61 % 0.00 in 645.0 W/m2 CLR
10:17 48.8 °F 36.4 °F 30.15 in North 8.5 mph 11.5 mph 62 % 0.00 in 659.0 W/m2 CLR
10:22 49.0 °F 35.7 °F 30.15 in NNW 10.4 mph 16.0 mph 60 % 0.00 in 671.0 W/m2 CLR
10:27 49.0 °F 35.7 °F 30.15 in NNW 6.2 mph 11.5 mph 60 % 0.00 in 686.0 W/m2 CLR
10:32 49.5 °F 35.8 °F 30.15 in WNW 12.4 mph 18.4 mph 59 % 0.00 in 700.0 W/m2 CLR
10:37 49.8 °F 35.6 °F 30.15 in NW 13.9 mph 19.6 mph 58 % 0.00 in 712.0 W/m2 CLR
10:42 49.6 °F 35.0 °F 30.15 in NW 10.1 mph 11.5 mph 57 % 0.00 in 722.0 W/m2 CLR
10:47 50.1 °F 35.9 °F 30.15 in NW 9.1 mph 15.0 mph 58 % 0.00 in 737.0 W/m2 CLR
10:52 50.3 °F 35.6 °F 30.14 in NW 12.9 mph 19.6 mph 57 % 0.00 in 749.0 W/m2 CLR
10:57 50.2 °F 35.5 °F 30.15 in NW 11.5 mph 18.4 mph 57 % 0.00 in 756.0 W/m2 CLR
11:02 50.9 °F 36.6 °F 30.15 in NNW 10.0 mph 18.4 mph 58 % 0.00 in 768.0 W/m2 CLR
11:07 50.8 °F 35.2 °F 30.15 in NNW 9.2 mph 16.0 mph 55 % 0.00 in 777.0 W/m2 CLR
11:12 50.7 °F 35.1 °F 30.15 in NNW 14.0 mph 17.3 mph 55 % 0.00 in 789.0 W/m2 CLR
11:17 51.0 °F 36.7 °F 30.14 in NNE 10.1 mph 10.4 mph 58 % 0.00 in 795.0 W/m2 CLR
11:22 51.5 °F 36.3 °F 30.15 in NW 6.6 mph 15.0 mph 56 % 0.00 in 805.0 W/m2 CLR
11:27 51.9 °F 35.8 °F 30.15 in NNW 14.6 mph 19.6 mph 54 % 0.00 in 816.0 W/m2 CLR
11:32 51.6 °F 35.0 °F 30.15 in NNW 11.9 mph 19.6 mph 53 % 0.00 in 824.0 W/m2 CLR
11:37 52.0 °F 36.3 °F 30.14 in North 8.1 mph 11.5 mph 55 % 0.00 in 828.0 W/m2 CLR
11:42 51.9 °F 35.3 °F 30.14 in North 9.8 mph 15.0 mph 53 % 0.00 in 837.0 W/m2 CLR
11:47 52.5 °F 35.8 °F 30.14 in NNW 9.1 mph 15.0 mph 53 % 0.00 in 846.0 W/m2 CLR
11:52 53.4 °F 36.2 °F 30.14 in NW 8.5 mph 14.0 mph 52 % 0.00 in 851.0 W/m2 CLR
11:57 53.2 °F 36.0 °F 30.14 in NNW 7.1 mph 11.5 mph 52 % 0.00 in 858.0 W/m2 CLR
12:02 53.1 °F 35.4 °F 30.14 in NNW 11.4 mph 19.6 mph 51 % 0.00 in 863.0 W/m2 CLR
12:03 53.1 °F 35.4 °F 30.14 in NW 10.6 mph 17.3 mph 51 % 0.00 in 863.0 W/m2 CLR
12:08 53.9 °F 36.2 °F 30.14 in NW 9.2 mph 16.0 mph 51 % 0.00 in 865.0 W/m2 CLR
12:13 54.2 °F 36.9 °F 30.14 in NNW 7.7 mph 11.5 mph 52 % 0.00 in 870.0 W/m2 CLR
12:18 53.9 °F 36.7 °F 30.14 in NW 8.6 mph 11.5 mph 52 % 0.00 in 874.0 W/m2 CLR
12:23 54.7 °F 36.9 °F 30.14 in North 9.6 mph 13.8 mph 51 % 0.00 in 881.0 W/m2 CLR
12:28 54.9 °F 36.1 °F 30.14 in NNE 11.5 mph 15.0 mph 49 % 0.00 in 882.0 W/m2 CLR
12:33 54.8 °F 36.0 °F 30.14 in NNW 11.3 mph 16.1 mph 49 % 0.00 in 888.0 W/m2 CLR
12:38 54.6 °F 36.3 °F 30.14 in North 4.6 mph 8.1 mph 50 % 0.00 in 888.0 W/m2 CLR
12:43 54.8 °F 36.0 °F 30.13 in NNE 9.3 mph 15.0 mph 49 % 0.00 in 889.0 W/m2 CLR
12:48 54.8 °F 35.5 °F 30.13 in North 8.6 mph 15.0 mph 48 % 0.00 in 893.0 W/m2 CLR
12:53 54.7 °F 36.4 °F 30.13 in WNW 10.5 mph 13.8 mph 50 % 0.00 in 893.0 W/m2 CLR
12:58 55.8 °F 37.4 °F 30.13 in NNW 7.7 mph 10.0 mph 50 % 0.00 in 895.0 W/m2 CLR
13:03 56.0 °F 35.5 °F 30.13 in NW 13.7 mph 18.4 mph 46 % 0.00 in 898.0 W/m2 CLR
13:08 55.2 °F 36.4 °F 30.13 in NNW 7.6 mph 12.7 mph 49 % 0.00 in 893.0 W/m2 CLR
13:13 56.0 °F 36.6 °F 30.14 in North 6.6 mph 11.5 mph 48 % 0.00 in 889.0 W/m2 CLR
13:18 56.1 °F 37.2 °F 30.13 in NNW 6.1 mph 11.5 mph 49 % 0.00 in 888.0 W/m2 CLR
13:23 56.1 °F 35.6 °F 30.13 in North 5.0 mph 16.1 mph 46 % 0.00 in 888.0 W/m2 CLR
13:28 56.3 °F 35.8 °F 30.13 in NW 12.3 mph 19.6 mph 46 % 0.00 in 886.0 W/m2 CLR
13:33 56.8 °F 36.8 °F 30.13 in North 7.5 mph 11.5 mph 47 % 0.00 in 882.0 W/m2 CLR
13:38 56.5 °F 35.4 °F 30.12 in NNW 8.9 mph 11.5 mph 45 % 0.00 in 881.0 W/m2 CLR
13:43 57.2 °F 36.6 °F 30.12 in North 7.1 mph 12.7 mph 46 % 0.00 in 879.0 W/m2 CLR
13:48 56.7 °F 35.6 °F 30.12 in NW 5.3 mph 11.5 mph 45 % 0.00 in 874.0 W/m2 CLR
13:53 57.2 °F 34.9 °F 30.12 in NNW 12.3 mph 15.0 mph 43 % 0.00 in 874.0 W/m2 CLR
13:58 56.8 °F 36.2 °F 30.12 in NW 5.7 mph 11.5 mph 46 % 0.00 in 867.0 W/m2 CLR
14:03 56.8 °F 35.1 °F 30.11 in NW 11.4 mph 16.1 mph 44 % 0.00 in 863.0 W/m2 CLR
14:08 57.3 °F 35.6 °F 30.11 in NNE 8.8 mph 16.1 mph 44 % 0.00 in 853.0 W/m2 CLR
14:14 57.3 °F 35.0 °F 30.11 in NNW 11.2 mph 13.8 mph 43 % 0.00 in 849.0 W/m2 CLR
14:19 57.9 °F 36.1 °F 30.11 in NW 9.8 mph 16.1 mph 44 % 0.00 in 844.0 W/m2 CLR
14:24 57.7 °F 34.7 °F 30.11 in WNW 9.4 mph 18.4 mph 42 % 0.00 in 838.0 W/m2 CLR
14:29 58.1 °F 35.7 °F 30.11 in NNW 12.2 mph 15.0 mph 43 % 0.00 in 831.0 W/m2 CLR
14:34 57.9 °F 34.9 °F 30.11 in NW 11.8 mph 17.3 mph 42 % 0.00 in 826.0 W/m2 CLR
14:39 57.5 °F 34.0 °F 30.11 in NNW 12.7 mph 19.6 mph 41 % 0.00 in 817.0 W/m2 CLR
14:44 57.6 °F 34.7 °F 30.10 in NW 12.2 mph 16.1 mph 42 % 0.00 in 807.0 W/m2 CLR
14:49 57.7 °F 35.9 °F 30.11 in North 9.4 mph 16.1 mph 44 % 0.00 in 795.0 W/m2 CLR
14:54 57.5 °F 35.7 °F 30.11 in NNW 9.4 mph 11.0 mph 44 % 0.00 in 784.0 W/m2 CLR
14:59 57.4 °F 35.1 °F 30.11 in NNW 9.3 mph 11.5 mph 43 % 0.00 in 775.0 W/m2 CLR
15:04 57.8 °F 34.8 °F 30.11 in NW 7.8 mph 14.0 mph 42 % 0.00 in 765.0 W/m2 CLR
15:09 57.7 °F 34.7 °F 30.10 in NW 8.4 mph 12.7 mph 42 % 0.00 in 756.0 W/m2 CLR
15:14 57.9 °F 34.3 °F 30.11 in North 8.7 mph 13.8 mph 41 % 0.00 in 747.0 W/m2 CLR
15:19 57.7 °F 34.7 °F 30.11 in NW 12.2 mph 16.1 mph 42 % 0.00 in 737.0 W/m2 CLR
15:24 57.8 °F 33.6 °F 30.11 in NW 7.4 mph 11.5 mph 40 % 0.00 in 724.0 W/m2 CLR
15:29 58.4 °F 35.4 °F 30.11 in NNW 8.1 mph 16.1 mph 42 % 0.00 in 710.0 W/m2 CLR
15:34 58.1 °F 33.9 °F 30.11 in NW 10.4 mph 15.0 mph 40 % 0.00 in 698.0 W/m2 CLR
15:39 57.6 °F 33.4 °F 30.10 in NW 7.3 mph 17.0 mph 40 % 0.00 in 686.0 W/m2 CLR
15:44 58.3 °F 34.1 °F 30.10 in WNW 12.8 mph 19.6 mph 40 % 0.00 in 671.0 W/m2 CLR
15:49 57.8 °F 34.2 °F 30.10 in NW 8.9 mph 16.0 mph 41 % 0.00 in 656.0 W/m2 CLR
15:54 57.9 °F 34.3 °F 30.10 in North 10.3 mph 13.8 mph 41 % 0.00 in 642.0 W/m2 CLR
15:59 57.8 °F 34.2 °F 30.10 in North 7.7 mph 18.4 mph 41 % 0.00 in 631.0 W/m2 CLR
16:04 57.9 °F 33.7 °F 30.10 in North 7.0 mph 11.5 mph 40 % 0.00 in 615.0 W/m2 CLR
16:09 57.8 °F 33.0 °F 30.11 in NNW 9.4 mph 16.1 mph 39 % 0.00 in 599.0 W/m2 CLR
16:14 57.4 °F 33.9 °F 30.11 in NNW 4.6 mph 10.4 mph 41 % 0.00 in 585.0 W/m2 CLR
16:19 57.4 °F 32.6 °F 30.11 in North 10.5 mph 13.8 mph 39 % 0.00 in 573.0 W/m2 CLR
16:24 56.8 °F 32.1 °F 30.11 in North 11.0 mph 18.0 mph 39 % 0.00 in 554.0 W/m2 CLR
16:29 56.4 °F 31.7 °F 30.11 in NNW 6.1 mph 13.8 mph 39 % 0.00 in 538.0 W/m2 CLR
16:34 56.6 °F 32.5 °F 30.11 in NNW 7.6 mph 11.5 mph 40 % 0.00 in 522.0 W/m2 CLR
16:39 56.4 °F 32.4 °F 30.11 in North 6.5 mph 12.0 mph 40 % 0.00 in 508.0 W/m2 CLR
16:44 56.3 °F 32.9 °F 30.11 in NNE 9.6 mph 12.7 mph 41 % 0.00 in 490.0 W/m2 CLR
16:49 56.5 °F 33.1 °F 30.11 in NNE 8.6 mph 11.5 mph 41 % 0.00 in 473.0 W/m2 CLR
16:55 56.4 °F 32.4 °F 30.12 in WNW 7.6 mph 12.7 mph 40 % 0.00 in 454.0 W/m2 CLR
17:00 57.0 °F 32.3 °F 30.12 in NW 8.6 mph 11.5 mph 39 % 0.00 in 438.0 W/m2 CLR
17:05 56.8 °F 32.7 °F 30.12 in NNW 4.4 mph 10.4 mph 40 % 0.00 in 418.0 W/m2 CLR
17:10 56.6 °F 32.5 °F 30.13 in North 5.5 mph 11.5 mph 40 % 0.00 in 403.0 W/m2 CLR
17:15 56.2 °F 32.8 °F 30.13 in North 6.4 mph 11.5 mph 41 % 0.00 in 381.0 W/m2 CLR
17:20 56.0 °F 31.4 °F 30.13 in North 7.1 mph 13.8 mph 39 % 0.00 in 367.0 W/m2 CLR
17:25 56.0 °F 31.4 °F 30.13 in NNW 10.0 mph 17.0 mph 39 % 0.00 in 348.0 W/m2 CLR
17:30 55.6 °F 32.2 °F 30.14 in North 8.6 mph 14.0 mph 41 % 0.00 in 329.0 W/m2 CLR
17:35 55.1 °F 30.6 °F 30.14 in NNE 8.7 mph 17.3 mph 39 % 0.00 in 311.0 W/m2 CLR
17:40 55.2 °F 31.3 °F 30.14 in North 7.0 mph 16.0 mph 40 % 0.00 in 294.0 W/m2 CLR
17:45 54.9 °F 31.0 °F 30.14 in NNW 5.2 mph 11.5 mph 40 % 0.00 in 276.0 W/m2 CLR
17:50 54.9 °F 30.4 °F 30.14 in North 8.0 mph 16.0 mph 39 % 0.00 in 255.0 W/m2 CLR
17:55 54.6 °F 30.7 °F 30.15 in NNW 8.0 mph 16.0 mph 40 % 0.00 in 234.0 W/m2 CLR
18:00 54.4 °F 30.6 °F 30.15 in North 5.6 mph 11.5 mph 40 % 0.00 in 214.0 W/m2 CLR
18:05 54.1 °F 30.3 °F 30.15 in North 5.0 mph 13.8 mph 40 % 0.00 in 192.0 W/m2 CLR
18:06 54.1 °F 30.3 °F 30.15 in NNE 5.7 mph 11.5 mph 40 % 0.00 in 188.0 W/m2 CLR
18:11 54.2 °F 31.0 °F 30.15 in NW 7.9 mph 11.5 mph 41 % 0.00 in 163.0 W/m2 CLR
18:16 54.1 °F 30.3 °F 30.15 in NW 7.3 mph 10.4 mph 40 % 0.00 in 141.0 W/m2 CLR
18:21 53.9 °F 30.7 °F 30.15 in North 6.3 mph 12.7 mph 41 % 0.00 in 121.0 W/m2 CLR
18:26 53.5 °F 30.4 °F 30.15 in NW 9.2 mph 16.0 mph 41 % 0.00 in 105.0 W/m2 FEW
18:31 53.3 °F 30.2 °F 30.15 in NW 6.1 mph 12.7 mph 41 % 0.00 in 84.0 W/m2 FEW
18:36 53.0 °F 29.9 °F 30.16 in NW 4.5 mph 10.0 mph 41 % 0.00 in 69.0 W/m2 FEW
18:41 52.8 °F 29.7 °F 30.16 in NNW 5.5 mph 9.2 mph 41 % 0.00 in 54.0 W/m2 SCT
18:46 52.6 °F 30.1 °F 30.16 in North 6.7 mph 11.5 mph 42 % 0.00 in 42.0 W/m2 SCT
18:51 52.4 °F 30.5 °F 30.16 in NNW 4.7 mph 6.9 mph 43 % 0.00 in 30.0 W/m2 BKN
18:56 52.0 °F 29.0 °F 30.16 in NNW 10.5 mph 13.8 mph 41 % 0.00 in 25.0 W/m2 BKN
19:01 51.6 °F 29.2 °F 30.17 in North 4.4 mph 12.7 mph 42 % 0.00 in 19.0 W/m2 BKN
19:06 51.3 °F 29.5 °F 30.17 in NNW 4.8 mph 9.2 mph 43 % 0.00 in 16.0 W/m2 BKN
19:11 50.9 °F 29.2 °F 30.17 in North 4.4 mph 12.7 mph 43 % 0.00 in 12.0 W/m2 SCT
19:16 50.6 °F 28.9 °F 30.17 in NNE 7.5 mph 11.5 mph 43 % 0.00 in 9.0 W/m2 FEW
19:21 50.4 °F 29.3 °F 30.17 in North 3.9 mph 8.1 mph 44 % 0.00 in 7.0 W/m2 FEW
19:26 50.2 °F 29.1 °F 30.18 in NNW 5.7 mph 11.5 mph 44 % 0.00 in 0.0 W/m2 FEW
19:27 50.1 °F 29.0 °F 30.18 in NNW 2.6 mph 8.1 mph 44 % 0.00 in 0.0 W/m2 FEW
19:32 49.9 °F 29.4 °F 30.18 in NW 5.0 mph 9.2 mph 45 % 0.00 in 0.0 W/m2 FEW
19:37 49.6 °F 29.1 °F 30.18 in NNW 5.1 mph 8.1 mph 45 % 0.00 in 0.0 W/m2 FEW
19:42 49.4 °F 28.9 °F 30.19 in North 4.6 mph 8.1 mph 45 % 0.00 in 0.0 W/m2 FEW
19:47 49.2 °F 28.7 °F 30.19 in NW 5.7 mph 10.4 mph 45 % 0.00 in 0.0 W/m2 FEW
19:52 49.1 °F 28.7 °F 30.20 in NNW 7.8 mph 11.5 mph 45 % 0.00 in 0.0 W/m2 FEW
19:57 49.0 °F 29.1 °F 30.20 in NNW 4.6 mph 11.5 mph 46 % 0.00 in 0.0 W/m2 FEW
20:02 48.8 °F 28.9 °F 30.20 in NW 3.5 mph 6.0 mph 46 % 0.00 in 0.0 W/m2 FEW
20:07 48.5 °F 28.6 °F 30.20 in NNW 8.2 mph 15.0 mph 46 % 0.00 in 0.0 W/m2 FEW
20:12 48.4 °F 28.0 °F 30.20 in North 6.0 mph 12.7 mph 45 % 0.00 in 0.0 W/m2 FEW
20:17 48.3 °F 27.9 °F 30.21 in NNW 7.4 mph 11.5 mph 45 % 0.00 in 0.0 W/m2 FEW
20:22 48.0 °F 28.2 °F 30.21 in North 6.6 mph 13.0 mph 46 % 0.00 in 0.0 W/m2 FEW
20:27 47.9 °F 28.1 °F 30.21 in NNW 4.6 mph 11.5 mph 46 % 0.00 in 0.0 W/m2 FEW
20:32 47.8 °F 28.0 °F 30.22 in North 7.9 mph 13.8 mph 46 % 0.00 in 0.0 W/m2 FEW
20:37 47.7 °F 27.9 °F 30.22 in NNW 4.3 mph 11.5 mph 46 % 0.00 in 0.0 W/m2 FEW
20:42 47.6 °F 28.3 °F 30.22 in NNW 3.5 mph 3.5 mph 47 % 0.00 in 0.0 W/m2 FEW
20:47 47.4 °F 28.2 °F 30.22 in NNW 4.8 mph 8.1 mph 47 % 0.00 in 0.0 W/m2 FEW
20:52 47.1 °F 28.4 °F 30.22 in NNW 0.7 mph 3.5 mph 48 % 0.00 in 0.0 W/m2 FEW
20:57 46.8 °F 28.6 °F 30.22 in North 2.4 mph 3.5 mph 49 % 0.00 in 0.0 W/m2 FEW
21:02 46.6 °F 28.4 °F 30.23 in Calm   2.3 mph 49 % 0.00 in 0.0 W/m2 FEW
21:03 46.6 °F 28.4 °F 30.23 in Calm   2.3 mph 49 % 0.00 in 0.0 W/m2 FEW
21:08 46.2 °F 28.6 °F 30.23 in NNE 2.9 mph 3.5 mph 50 % 0.00 in 0.0 W/m2 FEW
21:13 46.1 °F 29.0 °F 30.23 in NNW 2.8 mph 3.5 mph 51 % 0.00 in 0.0 W/m2 FEW
21:18 45.8 °F 28.7 °F 30.24 in North 4.5 mph 10.4 mph 51 % 0.00 in 0.0 W/m2 FEW
21:23 45.8 °F 28.7 °F 30.24 in NNE 8.4 mph 11.5 mph 51 % 0.00 in 0.0 W/m2 FEW
21:28 45.9 °F 28.8 °F 30.24 in NNE 5.3 mph 9.2 mph 51 % 0.00 in 0.0 W/m2 FEW
21:33 45.9 °F 28.8 °F 30.24 in NNW 3.4 mph 9.2 mph 51 % 0.00 in 0.0 W/m2 FEW
21:38 45.7 °F 28.6 °F 30.25 in NNW 5.2 mph 11.5 mph 51 % 0.00 in 0.0 W/m2 FEW
21:43 45.6 °F 28.5 °F 30.25 in NNW 2.4 mph 5.0 mph 51 % 0.00 in 0.0 W/m2 FEW
21:48 45.4 °F 28.3 °F 30.24 in North 4.1 mph 9.2 mph 51 % 0.00 in 0.0 W/m2 FEW
21:53 45.1 °F 28.0 °F 30.25 in NNW 6.5 mph 11.5 mph 51 % 0.00 in 0.0 W/m2 FEW
21:58 45.0 °F 27.9 °F 30.25 in NNW 5.6 mph 11.5 mph 51 % 0.00 in 0.0 W/m2 FEW
22:03 44.8 °F 27.8 °F 30.25 in North 8.2 mph 11.5 mph 51 % 0.00 in 0.0 W/m2 FEW
22:08 44.6 °F 28.0 °F 30.25 in NNW 3.5 mph 5.8 mph 52 % 0.00 in 0.0 W/m2 FEW
22:13 44.2 °F 28.1 °F 30.25 in NNW 2.5 mph 3.5 mph 53 % 0.00 in 0.0 W/m2 FEW
22:18 43.9 °F 27.9 °F 30.25 in NNW 2.7 mph 6.9 mph 53 % 0.00 in 0.0 W/m2 FEW
22:23 43.8 °F 28.2 °F 30.25 in Calm   2.3 mph 54 % 0.00 in 0.0 W/m2 FEW
22:28 43.7 °F 28.1 °F 30.26 in North 3.0 mph 5.0 mph 54 % 0.00 in 0.0 W/m2 FEW
22:33 43.5 °F 27.9 °F 30.26 in NNW 2.2 mph 3.5 mph 54 % 0.00 in 0.0 W/m2 FEW
22:38 43.4 °F 28.3 °F 30.26 in NNE 3.3 mph 4.6 mph 55 % 0.00 in 0.0 W/m2 FEW
22:43 43.2 °F 27.7 °F 30.26 in NNE 3.8 mph 9.0 mph 54 % 0.00 in 0.0 W/m2 FEW
22:48 43.2 °F 27.7 °F 30.26 in NNE 3.6 mph 8.1 mph 54 % 0.00 in 0.0 W/m2 FEW
22:53 43.1 °F 27.6 °F 30.26 in NNW 2.6 mph 3.5 mph 54 % 0.00 in 0.0 W/m2 FEW
22:58 43.1 °F 28.0 °F 30.26 in NNW 1.0 mph 4.6 mph 55 % 0.00 in 0.0 W/m2 FEW
23:00 43.1 °F 28.0 °F 30.26 in NNW 0.9 mph 3.5 mph 55 % 0.00 in 0.0 W/m2 FEW
23:05 42.8 °F 27.7 °F 30.26 in NNW 2.4 mph 8.1 mph 55 % 0.00 in 0.0 W/m2 FEW
23:10 42.6 °F 27.5 °F 30.26 in NNE 0.5 mph 3.5 mph 55 % 0.00 in 0.0 W/m2 FEW
23:15 42.3 °F 27.7 °F 30.26 in NNE 3.5 mph 5.0 mph 56 % 0.00 in 0.0 W/m2 FEW
23:20 42.0 °F 27.9 °F 30.26 in North 3.6 mph 9.2 mph 57 % 0.00 in 0.0 W/m2 FEW
23:25 41.9 °F 27.8 °F 30.26 in North 1.8 mph 4.6 mph 57 % 0.00 in 0.0 W/m2 FEW
23:30 41.8 °F 27.7 °F 30.26 in NNE 2.4 mph 6.0 mph 57 % 0.00 in 0.0 W/m2 FEW
23:35 41.6 °F 27.5 °F 30.26 in NE 3.5 mph 6.9 mph 57 % 0.00 in 0.0 W/m2 FEW
23:40 41.4 °F 27.7 °F 30.26 in North 1.5 mph 3.5 mph 58 % 0.00 in 0.0 W/m2 FEW
23:45 41.2 °F 27.5 °F 30.26 in NNE 3.3 mph 5.0 mph 58 % 0.00 in 0.0 W/m2 FEW
23:50 41.1 °F 27.4 °F 30.26 in North 1.7 mph 5.8 mph 58 % 0.00 in 0.0 W/m2 FEW
23:55 41.0 °F 27.3 °F 30.26 in NNE 5.6 mph 9.2 mph 58 % 0.00 in 0.0 W/m2 FEW
Air Products Campus Weather
Compliments of Weather Underground - 3.5 mb